createdAt,value
2023-04-24T00:01:18.100Z,0.70
2023-04-24T00:04:07.450Z,0.80
2023-04-24T00:06:58.349Z,0.73
2023-04-24T00:09:45.299Z,1.00
2023-04-24T00:12:32.885Z,0.90
2023-04-24T00:15:19.482Z,0.60
2023-04-24T00:18:06.096Z,0.70
2023-04-24T00:20:54.646Z,1.00
2023-04-24T00:23:41.298Z,0.80
2023-04-24T00:26:27.647Z,0.93
2023-04-24T00:29:14.278Z,0.70
2023-04-24T00:32:01.213Z,0.47
2023-04-24T00:34:48.045Z,0.50
2023-04-24T00:37:35.846Z,0.70
2023-04-24T00:40:22.734Z,0.47
2023-04-24T00:43:10.653Z,0.50
2023-04-24T00:45:57.631Z,0.50
2023-04-24T00:48:45.928Z,0.47
2023-04-24T00:51:33.791Z,0.43
2023-04-24T00:54:22.404Z,0.30
2023-04-24T00:57:09.119Z,0.30
2023-04-24T00:59:55.665Z,0.30
2023-04-24T01:02:46.369Z,0.30
2023-04-24T01:05:33.761Z,0.50
2023-04-24T01:08:21.098Z,0.57
2023-04-24T01:11:09.195Z,0.50
2023-04-24T01:13:55.651Z,0.40
2023-04-24T01:16:42.468Z,0.60
2023-04-24T01:19:29.251Z,0.40
2023-04-24T01:22:18.287Z,0.70
2023-04-24T01:25:06.095Z,0.50
2023-04-24T01:27:53.699Z,0.60
2023-04-24T01:30:40.104Z,0.70
2023-04-24T01:33:26.668Z,0.50
2023-04-24T01:36:13.735Z,0.40
2023-04-24T01:39:01.763Z,0.57
2023-04-24T01:41:48.563Z,0.50
2023-04-24T01:44:36.022Z,0.40
2023-04-24T01:47:23.089Z,0.50
2023-04-24T01:50:10.723Z,0.50
2023-04-24T01:52:57.484Z,0.40
2023-04-24T01:55:45.270Z,0.50
2023-04-24T01:58:31.950Z,0.80
2023-04-24T02:01:21.177Z,0.70
2023-04-24T02:04:09.266Z,0.70
2023-04-24T02:06:55.970Z,0.60
2023-04-24T02:09:42.797Z,0.60
2023-04-24T02:12:30.833Z,0.60
2023-04-24T02:15:18.129Z,0.50
2023-04-24T02:18:04.780Z,0.33
2023-04-24T02:20:51.403Z,0.60
2023-04-24T02:23:37.770Z,0.70
2023-04-24T02:26:24.142Z,0.80
2023-04-24T02:29:11.913Z,0.80
2023-04-24T02:31:58.755Z,0.80
2023-04-24T02:34:45.595Z,0.80
2023-04-24T02:37:31.862Z,0.77
2023-04-24T02:40:18.332Z,0.80
2023-04-24T02:43:04.804Z,0.87
2023-04-24T02:45:52.666Z,0.60
2023-04-24T02:48:39.233Z,0.63
2023-04-24T02:51:26.167Z,0.77
2023-04-24T02:54:12.593Z,1.03
2023-04-24T02:56:58.961Z,0.90
2023-04-24T02:59:45.744Z,0.87
2023-04-24T03:02:33.617Z,1.10
2023-04-24T03:05:20.419Z,0.90
2023-04-24T03:08:07.221Z,1.07
2023-04-24T03:10:53.819Z,1.13
2023-04-24T03:13:40.714Z,1.00
2023-04-24T03:16:27.530Z,1.43
2023-04-24T03:19:15.755Z,1.17
2023-04-24T03:22:04.030Z,1.20
2023-04-24T03:24:50.711Z,1.27
2023-04-24T03:27:37.072Z,1.40
2023-04-24T03:30:23.539Z,1.37
2023-04-24T03:33:10.848Z,1.50
2023-04-24T03:35:58.774Z,1.50
2023-04-24T03:38:45.259Z,1.60
2023-04-24T03:41:32.079Z,1.47
2023-04-24T03:44:18.393Z,1.10
2023-04-24T03:47:05.018Z,1.50
2023-04-24T03:49:52.711Z,1.37
2023-04-24T03:52:40.415Z,1.27
2023-04-24T03:55:27.126Z,1.20
2023-04-24T03:58:14.807Z,1.43
2023-04-24T04:01:01.206Z,1.20
2023-04-24T04:03:47.811Z,1.40
2023-04-24T04:06:34.620Z,1.30
2023-04-24T04:09:22.524Z,1.20
2023-04-24T04:12:08.929Z,1.40
2023-04-24T04:14:55.513Z,1.00
2023-04-24T04:17:41.995Z,1.00
2023-04-24T04:20:28.450Z,3.80
2023-04-24T04:23:14.905Z,1.30
2023-04-24T04:26:02.649Z,1.47
2023-04-24T04:28:50.074Z,1.00
2023-04-24T04:31:36.690Z,1.20
2023-04-24T04:34:23.643Z,1.33
2023-04-24T04:37:12.187Z,1.33
2023-04-24T04:39:59.063Z,1.13
2023-04-24T04:42:47.139Z,1.30
2023-04-24T04:45:35.352Z,1.90
2023-04-24T04:48:22.284Z,4.47
2023-04-24T04:51:08.764Z,1.43
2023-04-24T04:53:55.181Z,3.73
2023-04-24T04:56:41.478Z,2.60
2023-04-24T04:59:29.206Z,2.13
2023-04-24T05:02:16.053Z,2.47
2023-04-24T05:05:02.894Z,1.60
2023-04-24T05:07:49.778Z,1.80
2023-04-24T05:10:37.900Z,1.43
2023-04-24T05:16:15.049Z,1.57
2023-04-24T05:19:01.747Z,1.63
2023-04-24T05:21:48.151Z,1.50
2023-04-24T05:24:34.430Z,1.80
2023-04-24T05:27:21.673Z,1.90
2023-04-24T05:30:10.495Z,1.77
2023-04-24T05:33:00.070Z,2.13
2023-04-24T05:35:48.489Z,1.80
2023-04-24T05:38:34.925Z,2.10
2023-04-24T05:41:22.215Z,2.10
2023-04-24T05:44:08.884Z,2.53
2023-04-24T05:46:56.429Z,3.23
2023-04-24T05:49:44.821Z,3.67
2023-04-24T05:52:31.454Z,3.87
2023-04-24T05:55:18.504Z,3.93
2023-04-24T05:58:05.657Z,4.60
2023-04-24T06:00:52.126Z,5.00
2023-04-24T06:03:38.982Z,4.47
2023-04-24T06:06:28.223Z,4.87
2023-04-24T06:09:14.922Z,5.03
2023-04-24T06:12:01.526Z,5.10
2023-04-24T06:14:48.099Z,5.30
2023-04-24T06:17:34.781Z,5.57
2023-04-24T06:20:22.062Z,6.03
2023-04-24T06:23:09.835Z,5.33
2023-04-24T06:25:56.381Z,5.57
2023-04-24T06:28:42.953Z,6.17
2023-04-24T06:31:29.373Z,5.83
2023-04-24T06:34:16.084Z,6.13
2023-04-24T06:37:03.054Z,5.93
2023-04-24T06:39:50.793Z,5.87
2023-04-24T06:42:37.959Z,5.40
2023-04-24T06:45:24.993Z,5.60
2023-04-24T06:48:11.852Z,6.37
2023-04-24T06:50:58.530Z,5.87
2023-04-24T06:53:44.987Z,9.77
2023-04-24T06:56:35.233Z,6.50
2023-04-24T06:59:22.089Z,6.00
2023-04-24T07:02:08.896Z,6.80
2023-04-24T07:04:55.846Z,8.77
2023-04-24T07:07:43.818Z,6.70
2023-04-24T07:10:31.308Z,8.33
2023-04-24T07:13:19.489Z,6.67
2023-04-24T07:16:07.119Z,6.27
2023-04-24T07:18:54.094Z,6.57
2023-04-24T07:21:40.751Z,7.27
2023-04-24T07:24:30.843Z,6.30
2023-04-24T07:27:17.680Z,6.30
2023-04-24T07:30:06.141Z,6.90
2023-04-24T07:32:52.876Z,6.30
2023-04-24T07:35:39.256Z,7.80
2023-04-24T07:38:26.884Z,6.10
2023-04-24T07:41:13.596Z,6.67
2023-04-24T07:44:00.807Z,6.73
2023-04-24T07:46:48.950Z,7.03
2023-04-24T07:49:35.900Z,6.43
2023-04-24T07:52:22.414Z,6.80
2023-04-24T07:55:09.475Z,7.00
2023-04-24T07:57:55.960Z,7.00
2023-04-24T08:00:42.367Z,7.77
2023-04-24T08:03:30.281Z,6.90
2023-04-24T08:06:17.000Z,7.40
2023-04-24T08:09:03.701Z,7.50
2023-04-24T08:11:50.530Z,7.57
2023-04-24T08:14:37.114Z,9.27
2023-04-24T08:17:24.196Z,7.70
2023-04-24T08:20:14.753Z,7.37
2023-04-24T08:23:01.397Z,7.17
2023-04-24T08:25:48.155Z,6.77
2023-04-24T08:28:34.730Z,6.70
2023-04-24T08:31:21.134Z,6.83
2023-04-24T08:34:07.425Z,7.33
2023-04-24T08:36:55.964Z,7.10
2023-04-24T08:39:42.634Z,6.17
2023-04-24T08:42:33.654Z,6.40
2023-04-24T08:45:20.355Z,5.70
2023-04-24T08:48:13.797Z,4.97
2023-04-24T08:51:09.042Z,5.67
2023-04-24T08:53:58.703Z,5.43
2023-04-24T08:56:46.863Z,5.17
2023-04-24T08:59:34.194Z,4.47
2023-04-24T09:02:21.032Z,4.90
2023-04-24T09:05:09.755Z,4.37
2023-04-24T09:07:57.689Z,4.27
2023-04-24T09:10:46.219Z,4.00
2023-04-24T09:13:35.101Z,4.03
2023-04-24T09:16:24.185Z,3.97
2023-04-24T09:19:10.795Z,3.83
2023-04-24T09:21:58.027Z,4.10
2023-04-24T09:24:44.953Z,4.00
2023-04-24T09:27:33.534Z,3.43
2023-04-24T09:30:24.657Z,3.60
2023-04-24T09:33:16.093Z,3.93
2023-04-24T09:36:03.477Z,3.00
2023-04-24T09:38:49.955Z,3.40
2023-04-24T09:41:36.506Z,2.90
2023-04-24T09:44:26.616Z,2.60
2023-04-24T09:47:13.168Z,2.67
2023-04-24T09:50:00.671Z,2.70
2023-04-24T09:52:48.643Z,2.57
2023-04-24T09:55:35.211Z,2.70
2023-04-24T09:58:27.433Z,2.40
2023-04-24T10:01:15.547Z,2.37
2023-04-24T10:04:02.398Z,2.53
2023-04-24T10:06:51.076Z,2.00
2023-04-24T10:09:38.113Z,2.10
2023-04-24T10:12:26.210Z,1.93
2023-04-24T10:15:14.872Z,2.40
2023-04-24T10:18:04.020Z,1.83
2023-04-24T10:20:50.999Z,1.90
2023-04-24T10:23:38.887Z,2.07
2023-04-24T10:26:26.374Z,1.90
2023-04-24T10:29:14.603Z,2.00
2023-04-24T10:32:01.250Z,1.97
2023-04-24T10:34:49.907Z,2.20
2023-04-24T10:37:39.172Z,2.37
2023-04-24T10:40:29.367Z,3.00
2023-04-24T10:43:20.532Z,1.70
2023-04-24T10:46:08.503Z,1.90
2023-04-24T10:48:56.524Z,2.03
2023-04-24T10:51:51.950Z,1.87
2023-04-24T10:54:43.360Z,1.80
2023-04-24T10:57:34.101Z,3.10
2023-04-24T11:03:30.063Z,2.10
2023-04-24T11:06:16.937Z,2.80
2023-04-24T11:09:09.152Z,1.60
2023-04-24T11:12:06.002Z,2.20
2023-04-24T11:15:03.851Z,1.57
2023-04-24T11:17:51.972Z,1.50
2023-04-24T11:20:38.579Z,1.70
2023-04-24T11:23:25.050Z,2.50
2023-04-24T11:26:20.975Z,1.50
2023-04-24T11:29:10.044Z,2.33
2023-04-24T11:31:58.223Z,2.27
2023-04-24T11:34:48.327Z,2.83
2023-04-24T11:37:38.123Z,2.20
2023-04-24T11:40:26.578Z,3.30
2023-04-24T11:43:16.405Z,3.97
2023-04-24T11:46:05.669Z,2.57
2023-04-24T11:48:52.963Z,2.30
2023-04-24T11:51:52.205Z,2.53
2023-04-24T11:54:40.468Z,2.80
2023-04-24T11:57:29.931Z,3.00
2023-04-24T12:00:20.647Z,5.30
2023-04-24T12:03:09.378Z,2.67
2023-04-24T12:06:07.497Z,2.37
2023-04-24T12:09:01.624Z,3.87
2023-04-24T12:11:55.863Z,2.53
2023-04-24T12:14:54.388Z,2.60
2023-04-24T12:17:44.245Z,3.00
2023-04-24T12:20:33.370Z,3.30
2023-04-24T12:23:36.484Z,3.20
2023-04-24T12:26:23.699Z,3.00
2023-04-24T12:29:10.051Z,3.40
2023-04-24T12:31:57.233Z,2.20
2023-04-24T12:34:45.969Z,2.07
2023-04-24T12:37:37.445Z,1.80
2023-04-24T12:40:30.000Z,1.30
2023-04-24T12:43:17.456Z,0.90
2023-04-24T12:46:04.823Z,1.77
2023-04-24T12:48:52.585Z,2.50
2023-04-24T12:51:40.550Z,1.60
2023-04-24T12:54:27.306Z,4.60
2023-04-24T12:57:13.763Z,1.70
2023-04-24T13:00:00.880Z,1.07
2023-04-24T13:02:47.532Z,1.03
2023-04-24T13:05:34.217Z,1.30
2023-04-24T13:08:21.860Z,1.60
2023-04-24T13:11:08.269Z,1.33
2023-04-24T13:13:55.427Z,1.47
2023-04-24T13:16:42.159Z,1.53
2023-04-24T13:19:31.188Z,1.50
2023-04-24T13:22:19.666Z,1.60
2023-04-24T13:25:09.920Z,1.60
2023-04-24T13:27:56.691Z,2.00
2023-04-24T13:30:43.222Z,1.87
2023-04-24T13:33:29.897Z,2.53
2023-04-24T13:36:17.767Z,2.20
2023-04-24T13:39:05.395Z,1.80
2023-04-24T13:41:53.288Z,2.47
2023-04-24T13:44:39.904Z,3.30
2023-04-24T13:47:26.347Z,3.23
2023-04-24T13:50:12.719Z,2.90
2023-04-24T13:53:02.630Z,2.50
2023-04-24T13:55:49.739Z,2.87
2023-04-24T13:58:38.194Z,2.27
2023-04-24T14:01:25.985Z,2.40
2023-04-24T14:04:13.386Z,3.10
2023-04-24T14:07:00.461Z,3.03
2023-04-24T14:09:46.804Z,2.87
2023-04-24T14:12:33.436Z,3.00
2023-04-24T14:15:21.952Z,3.90
2023-04-24T14:18:08.834Z,3.83
2023-04-24T14:20:55.550Z,2.90
2023-04-24T14:23:42.362Z,2.37
2023-04-24T14:26:28.881Z,6.70
2023-04-24T14:29:15.680Z,4.97
2023-04-24T14:32:03.745Z,2.77
2023-04-24T14:34:51.378Z,3.53
2023-04-24T14:37:37.969Z,5.83
2023-04-24T14:40:48.274Z,5.07
2023-04-24T14:43:31.418Z,4.10
2023-04-24T14:46:18.012Z,6.03
2023-04-24T14:49:06.292Z,3.93
2023-04-24T14:51:52.971Z,3.57
2023-04-24T14:54:39.419Z,4.57
2023-04-24T14:57:26.166Z,3.60
2023-04-24T15:00:13.676Z,4.20
2023-04-24T15:03:00.291Z,4.40
2023-04-24T15:05:48.398Z,4.27
2023-04-24T15:08:35.063Z,3.20
2023-04-24T15:11:21.670Z,3.47
2023-04-24T15:14:09.158Z,3.90
2023-04-24T15:16:57.340Z,3.50
2023-04-24T15:19:44.275Z,3.80
2023-04-24T15:22:32.025Z,3.23
2023-04-24T15:25:18.795Z,3.60
2023-04-24T15:28:06.941Z,3.60
2023-04-24T15:30:53.729Z,3.80
2023-04-24T15:33:40.177Z,5.00
2023-04-24T15:36:26.731Z,4.37
2023-04-24T15:39:14.511Z,2.87
2023-04-24T15:42:01.627Z,3.73
2023-04-24T15:44:47.895Z,3.83
2023-04-24T15:47:34.681Z,2.47
2023-04-24T15:50:22.742Z,3.33
2023-04-24T15:53:09.777Z,2.47
2023-04-24T15:55:58.286Z,2.90
2023-04-24T15:58:45.504Z,3.13
2023-04-24T16:01:32.304Z,3.73
2023-04-24T16:04:19.002Z,2.43
2023-04-24T16:07:05.978Z,2.80
2023-04-24T16:09:52.545Z,2.20
2023-04-24T16:12:40.884Z,2.63
2023-04-24T16:15:27.198Z,2.23
2023-04-24T16:18:13.676Z,2.77
2023-04-24T16:20:59.947Z,2.57
2023-04-24T16:23:46.348Z,2.73
2023-04-24T16:26:33.150Z,2.83
2023-04-24T16:29:22.345Z,2.80
2023-04-24T16:32:08.585Z,3.90
2023-04-24T16:34:55.584Z,2.20
2023-04-24T16:37:42.508Z,2.60
2023-04-24T16:40:29.177Z,2.30
2023-04-24T16:43:15.597Z,2.13
2023-04-24T16:46:03.939Z,2.50
2023-04-24T16:48:50.893Z,8.67
2023-04-24T16:51:37.798Z,3.27
2023-04-24T16:54:24.168Z,4.57
2023-04-24T16:57:10.592Z,8.23
2023-04-24T16:59:57.115Z,5.47
2023-04-24T17:02:48.517Z,2.73
2023-04-24T17:05:35.896Z,3.37
2023-04-24T17:08:23.810Z,5.03
2023-04-24T17:11:10.668Z,6.07
2023-04-24T17:13:59.606Z,3.50
2023-04-24T17:16:46.941Z,3.87
2023-04-24T17:19:34.902Z,2.87
2023-04-24T17:22:21.543Z,3.80
2023-04-24T17:25:08.606Z,3.20
2023-04-24T17:27:55.341Z,2.47
2023-04-24T17:30:41.877Z,1.70
2023-04-24T17:33:29.172Z,2.47
2023-04-24T17:36:17.819Z,1.80
2023-04-24T17:39:04.822Z,2.47
2023-04-24T17:41:51.718Z,4.70
2023-04-24T17:44:38.342Z,5.30
2023-04-24T17:47:26.288Z,4.77
2023-04-24T17:50:13.133Z,5.37
2023-04-24T17:53:01.302Z,5.07
2023-04-24T17:55:47.833Z,5.43
2023-04-24T17:58:35.022Z,4.20
2023-04-24T18:01:21.902Z,4.27
2023-04-24T18:04:08.788Z,4.23
2023-04-24T18:06:55.286Z,5.37
2023-04-24T18:09:43.122Z,4.37
2023-04-24T18:12:30.038Z,3.90
2023-04-24T18:15:17.001Z,2.60
2023-04-24T18:18:04.042Z,6.03
2023-04-24T18:20:50.560Z,1.77
2023-04-24T18:23:37.983Z,1.90
2023-04-24T18:26:26.228Z,2.10
2023-04-24T18:29:13.071Z,3.13
2023-04-24T18:31:59.721Z,3.17
2023-04-24T18:34:46.315Z,3.03
2023-04-24T18:37:33.568Z,2.27
2023-04-24T18:40:20.370Z,2.93
2023-04-24T18:43:08.325Z,2.77
2023-04-24T18:45:55.045Z,2.10
2023-04-24T18:48:41.410Z,2.27
2023-04-24T18:51:28.205Z,2.30
2023-04-24T18:54:15.142Z,3.23
2023-04-24T18:57:02.605Z,2.10
2023-04-24T18:59:50.929Z,2.20
2023-04-24T19:02:37.897Z,2.60
2023-04-24T19:05:24.529Z,2.03
2023-04-24T19:08:10.828Z,2.50
2023-04-24T19:10:57.421Z,2.57
2023-04-24T19:13:43.922Z,2.47
2023-04-24T19:16:32.143Z,2.70
2023-04-24T19:19:18.943Z,2.60
2023-04-24T19:22:05.596Z,2.83
2023-04-24T19:24:53.744Z,3.07
2023-04-24T19:27:40.617Z,3.30
2023-04-24T19:30:27.329Z,2.97
2023-04-24T19:33:15.101Z,2.70
2023-04-24T19:36:01.960Z,2.67
2023-04-24T19:38:50.747Z,3.07
2023-04-24T19:41:39.285Z,2.57
2023-04-24T19:44:25.849Z,2.80
2023-04-24T19:47:13.762Z,2.70
2023-04-24T19:50:01.888Z,2.67
2023-04-24T19:52:48.325Z,2.60
2023-04-24T19:55:34.754Z,2.90
2023-04-24T19:58:21.205Z,2.43
2023-04-24T20:01:07.504Z,2.40
2023-04-24T20:03:54.010Z,2.23
2023-04-24T20:06:42.354Z,2.03
2023-04-24T20:09:29.910Z,2.57
2023-04-24T20:12:18.111Z,2.60
2023-04-24T20:15:04.910Z,2.67
2023-04-24T20:17:51.357Z,2.67
2023-04-24T20:20:38.747Z,2.93
2023-04-24T20:23:27.186Z,3.07
2023-04-24T20:26:13.810Z,2.57
2023-04-24T20:29:00.280Z,2.67
2023-04-24T20:31:47.401Z,2.40
2023-04-24T20:34:34.176Z,2.37
2023-04-24T20:37:20.837Z,3.23
2023-04-24T20:40:10.039Z,2.33
2023-04-24T20:42:58.416Z,2.77
2023-04-24T20:45:45.190Z,2.70
2023-04-24T20:48:31.538Z,2.57
2023-04-24T20:51:19.591Z,2.83
2023-04-24T20:54:06.104Z,2.70
2023-04-24T20:56:54.188Z,2.50
2023-04-24T20:59:40.902Z,2.60
2023-04-24T21:02:27.931Z,2.73
2023-04-24T21:05:14.882Z,2.77
2023-04-24T21:08:01.433Z,2.73
2023-04-24T21:10:47.981Z,2.63
2023-04-24T21:13:35.921Z,3.00
2023-04-24T21:16:22.375Z,2.40
2023-04-24T21:19:09.250Z,2.67
2023-04-24T21:21:55.933Z,2.97
2023-04-24T21:24:42.333Z,2.73
2023-04-24T21:27:28.806Z,2.63
2023-04-24T21:30:16.770Z,3.33
2023-04-24T21:33:03.510Z,3.03
2023-04-24T21:35:50.411Z,3.07
2023-04-24T21:38:37.069Z,2.40
2023-04-24T21:41:24.689Z,2.83
2023-04-24T21:44:11.354Z,2.73
2023-04-24T21:46:59.230Z,2.60
2023-04-24T21:49:46.122Z,3.00
2023-04-24T21:52:32.797Z,3.00
2023-04-24T21:55:19.281Z,3.03
2023-04-24T21:58:05.856Z,3.20
2023-04-24T22:00:52.148Z,3.33
2023-04-24T22:03:40.258Z,2.83
2023-04-24T22:06:27.324Z,3.80
2023-04-24T22:09:13.760Z,3.63
2023-04-24T22:12:00.525Z,3.40
2023-04-24T22:14:47.129Z,3.53
2023-04-24T22:17:33.710Z,2.70
2023-04-24T22:20:22.685Z,3.57
2023-04-24T22:23:09.060Z,3.83
2023-04-24T22:25:55.567Z,3.13
2023-04-24T22:28:41.934Z,2.93
2023-04-24T22:31:28.562Z,3.30
2023-04-24T22:34:17.052Z,3.03
2023-04-24T22:37:04.700Z,2.70
2023-04-24T22:39:51.171Z,3.60
2023-04-24T22:42:37.644Z,3.03
2023-04-24T22:45:23.959Z,3.40
2023-04-24T22:48:10.308Z,3.70
2023-04-24T22:50:56.867Z,3.37
2023-04-24T22:53:44.540Z,4.00
2023-04-24T22:56:31.712Z,3.50
2023-04-24T22:59:18.628Z,3.17
2023-04-24T23:02:05.270Z,3.20
2023-04-24T23:04:52.165Z,2.90
2023-04-24T23:07:39.267Z,3.83
2023-04-24T23:10:27.484Z,3.73
2023-04-24T23:13:14.122Z,3.40
2023-04-24T23:16:00.576Z,3.77
2023-04-24T23:18:46.951Z,2.90
2023-04-24T23:21:34.358Z,3.37
2023-04-24T23:24:20.902Z,3.23
2023-04-24T23:27:08.747Z,3.50
2023-04-24T23:29:55.260Z,3.77
2023-04-24T23:32:44.140Z,3.50
2023-04-24T23:35:30.941Z,3.50
2023-04-24T23:38:17.503Z,3.73
2023-04-24T23:41:03.991Z,4.00
2023-04-24T23:43:51.997Z,3.13
2023-04-24T23:46:38.677Z,3.80
2023-04-24T23:49:25.300Z,3.77
2023-04-24T23:52:12.268Z,3.47
2023-04-24T23:54:58.882Z,3.50
2023-04-24T23:57:45.303Z,3.83
